Time;durP1;ratioP1;P1;durP2;ratioP2;P2;SDS_P1;SDS_P2;PMS_P1;PMS_P2;Temp;Humidity;BMP_temperature;BMP_pressure;BME280_temperature;BME280_humidity;BME280_pressure;Samples;Min_cycle;Max_cycle;Signal;HPM_P1;HPM_P2
2022/03/25 00:01:54;;;;;;;24.73;10.57;;;5.70;99.90;;;;;;5030450;28;20033;-72
2022/03/25 00:04:20;;;;;;;25.08;9.93;;;5.60;99.90;;;;;;5027843;28;20482;-72
2022/03/25 00:06:45;;;;;;;20.65;10.23;;;5.60;99.90;;;;;;5026845;28;20042;-72
2022/03/25 00:09:11;;;;;;;23.77;10.10;;;5.60;99.90;;;;;;5030931;28;20029;-72
2022/03/25 00:11:37;;;;;;;14.25;8.55;;;5.60;99.90;;;;;;5028882;28;20045;-72
2022/03/25 00:14:03;;;;;;;18.55;9.55;;;5.60;99.90;;;;;;5034540;28;20041;-72
2022/03/25 00:16:29;;;;;;;22.50;11.30;;;5.60;99.90;;;;;;5042397;28;20049;-72
2022/03/25 00:18:54;;;;;;;27.38;10.48;;;5.50;99.90;;;;;;5046776;28;20204;-72
2022/03/25 00:21:20;;;;;;;22.85;11.35;;;5.50;99.90;;;;;;5029956;28;20069;-72
2022/03/25 00:23:46;;;;;;;20.45;10.15;;;5.50;99.90;;;;;;5033131;28;20497;-72
2022/03/25 00:26:12;;;;;;;20.77;9.68;;;5.40;99.90;;;;;;5042938;28;20164;-72
2022/03/25 00:28:38;;;;;;;18.10;9.35;;;5.30;99.90;;;;;;5030208;28;20087;-72
2022/03/25 00:31:07;;;;;;;20.17;10.18;;;5.30;99.90;;;;;;5030211;28;20045;-72
2022/03/25 00:33:34;;;;;;;17.95;8.45;;;5.20;99.90;;;;;;5036045;28;20064;-72
2022/03/25 00:36:01;;;;;;;18.63;8.98;;;5.10;99.90;;;;;;5033135;28;20103;-72
2022/03/25 00:38:27;;;;;;;16.30;9.18;;;5.10;99.90;;;;;;5028609;28;20029;-72
2022/03/25 00:40:53;;;;;;;19.08;9.00;;;5.00;99.90;;;;;;5052197;28;20041;-72
2022/03/25 00:43:20;;;;;;;19.85;9.88;;;5.00;99.90;;;;;;5035892;28;20045;-72
2022/03/25 00:45:46;;;;;;;15.32;8.10;;;4.90;99.90;;;;;;5033444;28;20138;-72
2022/03/25 00:48:13;;;;;;;17.52;8.57;;;4.80;99.90;;;;;;5030377;28;20037;-72
2022/03/25 00:50:40;;;;;;;13.45;8.00;;;4.80;99.90;;;;;;5038886;28;20041;-72
2022/03/25 00:53:06;;;;;;;13.27;7.45;;;4.80;99.90;;;;;;5030427;28;20037;-72
2022/03/25 00:55:32;;;;;;;15.30;7.85;;;4.70;99.90;;;;;;5036609;28;20045;-72
2022/03/25 00:57:58;;;;;;;12.98;7.47;;;4.70;99.90;;;;;;5035144;28;20045;-72
2022/03/25 01:00:24;;;;;;;13.95;8.35;;;4.70;99.90;;;;;;5033128;28;20067;-72
2022/03/25 01:02:50;;;;;;;12.13;7.55;;;4.70;99.90;;;;;;5036460;28;20033;-72
2022/03/25 01:05:17;;;;;;;16.65;7.97;;;4.60;99.90;;;;;;5029132;28;20033;-72
2022/03/25 01:07:44;;;;;;;14.18;6.95;;;4.60;99.90;;;;;;5045728;28;20131;-72
2022/03/25 01:10:10;;;;;;;12.68;6.47;;;4.50;99.90;;;;;;5030558;28;20029;-72
2022/03/25 01:12:35;;;;;;;8.57;6.05;;;4.40;99.90;;;;;;5029024;28;20046;-72
2022/03/25 01:15:02;;;;;;;10.10;6.60;;;4.40;99.90;;;;;;5030565;28;20029;-72
2022/03/25 01:17:28;;;;;;;9.50;5.80;;;4.30;99.90;;;;;;5029663;28;20049;-72
2022/03/25 01:19:54;;;;;;;13.57;7.28;;;4.30;99.90;;;;;;5051276;28;20214;-73
2022/03/25 01:22:19;;;;;;;10.70;6.30;;;4.30;99.90;;;;;;5032281;28;20795;-72
2022/03/25 01:24:45;;;;;;;12.95;6.40;;;4.30;99.90;;;;;;5034190;28;20035;-72
2022/03/25 01:27:10;;;;;;;11.88;6.95;;;4.20;99.90;;;;;;5035075;28;20482;-72
2022/03/25 01:29:36;;;;;;;12.00;6.15;;;4.10;99.90;;;;;;5018306;28;20038;-72
2022/03/25 01:32:03;;;;;;;10.98;6.13;;;4.10;99.90;;;;;;5031056;28;20083;-72
2022/03/25 01:34:29;;;;;;;8.85;5.13;;;4.20;99.90;;;;;;5033275;28;20403;-72
2022/03/25 01:36:54;;;;;;;11.88;6.40;;;4.20;99.90;;;;;;5048371;28;20041;-72
2022/03/25 01:39:20;;;;;;;13.20;6.65;;;4.20;99.90;;;;;;5030377;28;20112;-72
2022/03/25 01:41:47;;;;;;;13.70;6.80;;;4.20;99.90;;;;;;5031913;28;20521;-72
2022/03/25 01:44:13;;;;;;;13.52;7.60;;;4.20;99.90;;;;;;5037517;28;20037;-72
2022/03/25 01:46:39;;;;;;;17.20;8.02;;;4.20;99.90;;;;;;5035617;28;20033;-72
2022/03/25 01:49:05;;;;;;;18.13;8.50;;;4.20;99.90;;;;;;5047881;28;20037;-72
2022/03/25 01:51:36;;;;;;;20.40;9.63;;;4.20;99.90;;;;;;5045076;28;20072;-72
2022/03/25 01:54:32;;;;;;;15.98;8.10;;;4.20;99.90;;;;;;5046853;28;20102;-72
2022/03/25 01:57:06;;;;;;;16.10;8.65;;;4.20;99.90;;;;;;5038966;28;20045;-72
2022/03/25 01:59:33;;;;;;;21.27;11.02;;;4.20;99.90;;;;;;5043593;28;20044;-72
2022/03/25 02:02:01;;;;;;;21.85;8.95;;;4.20;99.90;;;;;;5028763;28;20509;-72
2022/03/25 02:04:27;;;;;;;22.02;10.48;;;4.20;99.90;;;;;;5035119;28;20147;-72
2022/03/25 02:06:53;;;;;;;24.55;11.75;;;4.30;99.90;;;;;;5028071;28;20475;-72
2022/03/25 02:09:19;;;;;;;21.90;11.38;;;4.30;99.90;;;;;;5032988;28;20127;-72
2022/03/25 02:11:45;;;;;;;27.85;12.38;;;4.30;99.90;;;;;;5030111;28;20038;-72
2022/03/25 02:14:11;;;;;;;21.02;10.55;;;4.30;99.90;;;;;;5035874;28;20033;-72
2022/03/25 02:16:45;;;;;;;23.15;10.25;;;4.30;99.90;;;;;;5045282;28;20049;-72
2022/03/25 02:19:13;;;;;;;21.02;10.85;;;4.30;99.90;;;;;;5030073;28;20049;-72
2022/03/25 02:21:41;;;;;;;26.45;12.15;;;4.30;99.90;;;;;;5036346;28;20049;-72
2022/03/25 02:24:09;;;;;;;25.38;11.40;;;4.40;99.90;;;;;;5029655;28;20048;-72
2022/03/25 02:26:36;;;;;;;20.00;8.95;;;4.40;99.90;;;;;;5028679;28;20509;-72
2022/03/25 02:29:03;;;;;;;24.08;11.40;;;4.40;99.90;;;;;;5024855;28;20124;-72
2022/03/25 02:31:28;;;;;;;25.08;11.88;;;4.30;99.90;;;;;;5034636;28;20438;-72
2022/03/25 02:34:00;;;;;;;24.58;11.27;;;4.30;99.90;;;;;;5035308;28;20366;-72
2022/03/25 02:36:25;;;;;;;24.90;12.63;;;4.30;99.90;;;;;;5031925;28;20135;-72
2022/03/25 02:38:51;;;;;;;26.15;12.85;;;4.40;99.90;;;;;;5032830;28;20127;-72
2022/03/25 02:41:17;;;;;;;27.63;11.80;;;4.40;99.90;;;;;;5034535;28;20232;-72
2022/03/25 02:43:43;;;;;;;27.30;12.35;;;4.40;99.90;;;;;;5028629;28;20392;-72
2022/03/25 02:46:08;;;;;;;27.80;12.55;;;4.40;99.90;;;;;;5044287;28;20498;-72
2022/03/25 02:48:34;;;;;;;30.75;11.02;;;4.50;99.90;;;;;;5047591;28;20083;-72
2022/03/25 02:51:00;;;;;;;26.83;12.07;;;4.50;99.90;;;;;;5029600;28;20120;-72
2022/03/25 02:53:27;;;;;;;26.50;12.50;;;4.50;99.90;;;;;;5045745;28;20033;-72
2022/03/25 02:55:53;;;;;;;21.52;11.05;;;4.50;99.90;;;;;;5052447;28;20371;-72
2022/03/25 02:58:19;;;;;;;26.38;11.93;;;4.50;99.90;;;;;;5032973;28;20490;-72
2022/03/25 03:00:45;;;;;;;23.60;11.43;;;4.50;99.90;;;;;;5033662;28;20076;-72
2022/03/25 03:03:11;;;;;;;25.30;11.85;;;4.50;99.90;;;;;;5028727;28;20501;-72
2022/03/25 03:05:37;;;;;;;24.35;11.40;;;4.60;99.90;;;;;;5045634;28;20372;-72
2022/03/25 03:08:02;;;;;;;23.17;11.32;;;4.60;99.90;;;;;;5043193;28;20160;-72
2022/03/25 03:10:28;;;;;;;22.52;10.75;;;4.60;99.90;;;;;;5040042;28;20448;-72
2022/03/25 03:12:54;;;;;;;21.40;10.10;;;4.50;99.90;;;;;;5016164;28;20208;-72
2022/03/25 03:15:21;;;;;;;24.65;10.23;;;4.50;99.90;;;;;;5016583;28;20037;-72
2022/03/25 03:17:48;;;;;;;22.25;9.93;;;4.40;99.90;;;;;;5028893;28;20152;-72
2022/03/25 03:20:15;;;;;;;21.75;10.13;;;4.40;99.90;;;;;;5029811;28;20052;-72
2022/03/25 03:22:41;;;;;;;25.15;11.55;;;4.40;99.90;;;;;;5039484;28;20049;-72
2022/03/25 03:25:07;;;;;;;21.83;10.52;;;4.40;99.90;;;;;;5036070;28;20025;-72
2022/03/25 03:27:33;;;;;;;23.50;11.80;;;4.30;99.90;;;;;;5030587;28;20029;-72
2022/03/25 03:29:58;;;;;;;19.48;9.65;;;4.30;99.90;;;;;;5039643;28;20116;-72
2022/03/25 03:32:25;;;;;;;23.13;10.20;;;4.20;99.90;;;;;;5030333;28;20072;-72
2022/03/25 03:34:53;;;;;;;22.38;10.13;;;4.20;99.90;;;;;;5026654;28;20037;-72
2022/03/25 03:37:19;;;;;;;20.42;9.70;;;4.10;99.90;;;;;;5030728;28;20084;-72
2022/03/25 03:39:45;;;;;;;18.25;9.73;;;4.20;99.90;;;;;;5031298;28;20056;-72
2022/03/25 03:42:10;;;;;;;25.08;12.15;;;4.20;99.90;;;;;;5027834;28;20142;-72
2022/03/25 03:44:36;;;;;;;26.67;11.98;;;4.20;99.90;;;;;;5026768;28;20540;-72
2022/03/25 03:47:03;;;;;;;20.90;9.57;;;4.20;99.90;;;;;;5030982;28;20037;-72
2022/03/25 03:49:29;;;;;;;20.33;10.25;;;4.20;99.90;;;;;;5055484;28;20427;-72
2022/03/25 03:51:55;;;;;;;20.67;9.40;;;4.10;99.90;;;;;;5040607;28;20037;-72
2022/03/25 03:54:20;;;;;;;16.83;9.60;;;4.10;99.90;;;;;;5026802;28;20499;-72
2022/03/25 03:56:46;;;;;;;23.40;10.48;;;4.00;99.90;;;;;;5031349;28;20049;-72
2022/03/25 03:59:12;;;;;;;23.75;9.85;;;3.90;99.90;;;;;;5049127;28;20375;-72
2022/03/25 04:01:38;;;;;;;19.98;9.95;;;3.90;99.90;;;;;;5035742;28;20038;-72
2022/03/25 04:04:03;;;;;;;18.70;9.13;;;3.90;99.90;;;;;;5057155;28;20033;-72
2022/03/25 04:06:29;;;;;;;24.15;11.38;;;4.00;99.90;;;;;;5037310;28;20033;-72
2022/03/25 04:08:56;;;;;;;18.85;9.13;;;4.00;99.90;;;;;;5051855;28;20449;-72
2022/03/25 04:11:21;;;;;;;17.15;9.75;;;4.00;99.90;;;;;;5016719;28;20045;-72
2022/03/25 04:13:47;;;;;;;17.80;9.52;;;4.00;99.90;;;;;;5046330;28;20529;-72
2022/03/25 04:16:13;;;;;;;19.42;9.77;;;4.00;99.90;;;;;;5051383;28;20041;-72
2022/03/25 04:18:38;;;;;;;19.17;9.82;;;3.90;99.90;;;;;;5036601;28;20045;-72
2022/03/25 04:21:05;;;;;;;19.17;8.80;;;3.90;99.90;;;;;;5037633;28;20057;-72
2022/03/25 04:23:31;;;;;;;18.77;9.65;;;3.80;99.90;;;;;;5042738;28;20395;-72
2022/03/25 04:25:57;;;;;;;18.70;9.30;;;3.80;99.90;;;;;;5032694;28;20040;-72
2022/03/25 04:28:22;;;;;;;21.17;9.80;;;3.80;99.90;;;;;;5034840;28;20122;-72
2022/03/25 04:30:48;;;;;;;16.98;9.18;;;3.70;99.90;;;;;;5033072;28;20716;-72
2022/03/25 04:33:14;;;;;;;16.75;8.52;;;3.70;99.90;;;;;;5040037;28;20071;-72
2022/03/25 04:35:40;;;;;;;17.92;9.68;;;3.70;99.90;;;;;;5031638;28;20398;-72
2022/03/25 04:38:06;;;;;;;17.33;9.65;;;3.60;99.90;;;;;;5033429;28;20175;-72
2022/03/25 04:40:32;;;;;;;19.20;9.80;;;3.60;99.90;;;;;;5033650;28;20609;-72
2022/03/25 04:42:59;;;;;;;18.20;8.63;;;3.50;99.90;;;;;;5052659;28;20055;-72
2022/03/25 04:45:26;;;;;;;18.95;8.95;;;3.60;99.90;;;;;;5042623;28;20041;-72
2022/03/25 04:47:53;;;;;;;15.32;7.90;;;3.60;99.90;;;;;;5032483;28;20108;-72
2022/03/25 04:50:20;;;;;;;15.90;7.97;;;3.50;99.90;;;;;;5035528;28;20044;-72
2022/03/25 04:52:46;;;;;;;16.50;9.35;;;3.40;99.90;;;;;;5039942;28;20045;-72
2022/03/25 04:55:13;;;;;;;15.15;8.35;;;3.40;99.90;;;;;;5046561;28;20048;-72
2022/03/25 04:57:42;;;;;;;14.90;8.23;;;3.40;99.90;;;;;;5033793;28;20453;-72
2022/03/25 05:00:09;;;;;;;20.55;9.60;;;3.30;99.90;;;;;;5028631;28;20125;-72
2022/03/25 05:02:35;;;;;;;13.85;7.47;;;3.30;99.90;;;;;;5034737;28;20040;-72
2022/03/25 05:05:01;;;;;;;19.27;8.00;;;3.30;99.90;;;;;;5029888;28;20422;-72
2022/03/25 05:07:27;;;;;;;16.42;7.70;;;3.30;99.90;;;;;;5030332;28;20171;-72
2022/03/25 05:09:52;;;;;;;16.48;7.38;;;3.20;99.90;;;;;;5049351;28;20034;-72
2022/03/25 05:12:18;;;;;;;19.13;8.63;;;3.20;99.90;;;;;;5053689;28;20371;-72
2022/03/25 05:14:44;;;;;;;16.42;9.63;;;3.20;99.90;;;;;;5044980;28;20479;-72
2022/03/25 05:17:10;;;;;;;15.80;8.30;;;3.20;99.90;;;;;;5032789;28;20183;-72
2022/03/25 05:19:36;;;;;;;16.52;9.00;;;3.20;99.90;;;;;;5042167;28;20430;-72
2022/03/25 05:22:02;;;;;;;16.88;7.80;;;3.10;99.90;;;;;;5033630;28;20041;-72
2022/03/25 05:24:27;;;;;;;14.32;8.82;;;3.10;99.90;;;;;;5031906;28;20697;-72
2022/03/25 05:26:54;;;;;;;16.70;7.85;;;3.10;99.90;;;;;;5031277;28;20045;-72
2022/03/25 05:29:20;;;;;;;21.35;10.27;;;3.10;99.90;;;;;;5028611;28;20065;-72
2022/03/25 05:31:46;;;;;;;12.93;7.95;;;3.00;99.90;;;;;;5036866;28;20282;-72
2022/03/25 05:34:12;;;;;;;17.40;9.27;;;3.00;99.90;;;;;;5038396;28;20352;-72
2022/03/25 05:36:37;;;;;;;19.42;8.88;;;3.10;99.90;;;;;;5028609;28;20361;-72
2022/03/25 05:39:04;;;;;;;18.52;10.00;;;3.00;99.90;;;;;;5046180;28;20041;-72
2022/03/25 05:41:30;;;;;;;14.43;7.78;;;3.00;99.90;;;;;;5033020;28;20124;-72
2022/03/25 05:43:56;;;;;;;16.33;7.97;;;3.10;99.90;;;;;;5034156;28;20194;-72
2022/03/25 05:46:21;;;;;;;17.02;8.77;;;3.00;99.90;;;;;;5027837;28;20044;-72
2022/03/25 05:48:47;;;;;;;15.60;7.85;;;3.00;99.90;;;;;;5040410;28;20041;-72
2022/03/25 05:51:13;;;;;;;16.92;8.02;;;3.00;99.90;;;;;;5032693;28;20094;-72
2022/03/25 05:53:42;;;;;;;12.35;7.10;;;3.00;99.90;;;;;;5034938;28;20127;-72
2022/03/25 05:56:08;;;;;;;14.10;8.30;;;2.90;99.90;;;;;;5045819;28;20151;-72
2022/03/25 05:58:34;;;;;;;13.82;7.53;;;2.90;99.90;;;;;;5028325;28;20125;-72
2022/03/25 06:01:01;;;;;;;18.88;7.72;;;2.90;99.90;;;;;;5052177;28;20040;-72
2022/03/25 06:03:27;;;;;;;19.00;8.43;;;2.80;99.90;;;;;;5030762;28;20030;-72
2022/03/25 06:05:53;;;;;;;17.65;7.90;;;2.80;99.90;;;;;;5036735;28;20479;-72
2022/03/25 06:08:18;;;;;;;14.60;7.18;;;2.80;99.90;;;;;;5032310;28;20044;-72
2022/03/25 06:10:44;;;;;;;15.68;8.82;;;2.90;99.90;;;;;;5042772;28;20029;-72
2022/03/25 06:13:10;;;;;;;13.75;7.97;;;2.90;99.90;;;;;;5033859;28;20390;-72
2022/03/25 06:15:35;;;;;;;18.35;9.27;;;2.90;99.90;;;;;;5035841;28;20128;-72
2022/03/25 06:18:01;;;;;;;19.38;9.75;;;3.00;99.90;;;;;;5064102;28;20048;-72
2022/03/25 06:20:28;;;;;;;16.40;8.82;;;2.90;99.90;;;;;;5043238;28;20051;-72
2022/03/25 06:22:54;;;;;;;14.57;7.85;;;2.90;99.90;;;;;;5041911;28;20080;-72
2022/03/25 06:25:20;;;;;;;16.75;8.68;;;3.00;99.90;;;;;;5057449;28;20099;-74
2022/03/25 06:27:53;;;;;;;22.83;8.68;;;3.00;99.90;;;;;;5047029;28;20049;-72
2022/03/25 06:30:20;;;;;;;13.27;6.53;;;3.00;99.90;;;;;;5059519;28;20045;-72
2022/03/25 06:32:46;;;;;;;17.02;8.32;;;3.00;99.90;;;;;;5045952;28;20041;-72
2022/03/25 06:35:13;;;;;;;13.63;7.38;;;3.00;99.90;;;;;;5041268;28;20056;-72
2022/03/25 06:37:40;;;;;;;13.93;7.32;;;3.00;99.90;;;;;;5063490;28;20122;-72
2022/03/25 06:40:07;;;;;;;14.00;6.70;;;3.10;99.90;;;;;;5043136;28;20490;-71
2022/03/25 06:42:37;;;;;;;13.73;7.20;;;3.10;99.90;;;;;;5042866;28;20040;-72
2022/03/25 06:45:08;;;;;;;17.10;8.13;;;3.10;99.90;;;;;;5061212;28;20551;-72
2022/03/25 06:47:34;;;;;;;19.17;7.38;;;3.10;99.90;;;;;;5051662;28;20061;-72
2022/03/25 06:50:01;;;;;;;18.92;8.20;;;3.20;99.90;;;;;;5050845;28;20545;-72
2022/03/25 06:52:27;;;;;;;23.75;9.43;;;3.30;99.90;;;;;;5041356;28;20033;-72
2022/03/25 06:54:53;;;;;;;16.17;8.20;;;3.40;99.90;;;;;;5034636;28;20501;-72
2022/03/25 06:57:19;;;;;;;24.42;10.82;;;3.50;99.90;;;;;;5044350;28;20041;-73
2022/03/25 06:59:45;;;;;;;22.52;10.90;;;3.50;99.90;;;;;;5043380;28;20040;-72
2022/03/25 07:02:11;;;;;;;18.00;9.02;;;3.60;99.90;;;;;;5045237;28;20124;-72
2022/03/25 07:04:38;;;;;;;18.25;8.20;;;3.70;99.90;;;;;;5037596;28;20045;-72
2022/03/25 07:07:06;;;;;;;17.73;9.45;;;3.80;99.90;;;;;;5028059;28;20040;-72
2022/03/25 07:09:32;;;;;;;20.08;9.43;;;3.90;99.90;;;;;;5029486;28;20063;-72
2022/03/25 07:12:00;;;;;;;20.45;8.98;;;3.90;99.90;;;;;;5040847;28;20155;-72
2022/03/25 07:14:26;;;;;;;22.50;10.65;;;4.00;99.90;;;;;;5032095;28;20041;-72
2022/03/25 07:16:52;;;;;;;29.92;9.27;;;4.10;99.90;;;;;;5045754;28;20052;-72
2022/03/25 07:19:18;;;;;;;24.75;8.65;;;4.20;99.90;;;;;;5056446;28;20150;-72
2022/03/25 07:21:44;;;;;;;19.80;10.30;;;4.20;99.90;;;;;;5042119;28;20175;-73
2022/03/25 07:24:11;;;;;;;25.08;11.40;;;4.30;99.90;;;;;;5040628;28;20103;-72
2022/03/25 07:26:37;;;;;;;27.00;11.20;;;4.40;99.90;;;;;;5053254;28;20471;-72
2022/03/25 07:29:03;;;;;;;17.90;9.55;;;4.40;99.90;;;;;;5043660;28;20037;-75
2022/03/25 07:31:28;;;;;;;23.70;11.23;;;4.50;99.90;;;;;;5038986;28;20037;-72
2022/03/25 07:34:00;;;;;;;27.42;10.50;;;4.60;99.90;;;;;;5042601;28;20239;-72
2022/03/25 07:36:26;;;;;;;21.42;11.00;;;4.70;99.90;;;;;;5057654;28;20033;-72
2022/03/25 07:38:51;;;;;;;17.83;9.10;;;4.80;99.90;;;;;;5055540;28;20037;-72
2022/03/25 07:41:18;;;;;;;24.38;10.57;;;4.80;99.90;;;;;;5028118;28;20697;-72
2022/03/25 07:43:45;;;;;;;28.30;12.07;;;4.90;99.90;;;;;;5040072;28;20500;-72
2022/03/25 07:46:10;;;;;;;23.92;10.23;;;5.00;99.90;;;;;;5014410;28;20037;-72
2022/03/25 07:48:36;;;;;;;23.35;10.13;;;5.10;99.90;;;;;;5056167;28;20098;-72
2022/03/25 07:51:02;;;;;;;24.30;10.55;;;5.20;99.90;;;;;;5051840;28;20040;-72
2022/03/25 07:53:28;;;;;;;21.80;10.45;;;5.40;99.90;;;;;;5046334;28;20174;-72
2022/03/25 07:55:54;;;;;;;22.42;10.40;;;5.40;99.90;;;;;;5038141;28;20396;-72
2022/03/25 07:58:21;;;;;;;24.90;11.95;;;5.50;99.90;;;;;;5036239;28;20051;-72
2022/03/25 08:00:48;;;;;;;24.80;9.32;;;5.70;99.90;;;;;;5018948;28;20074;-72
2022/03/25 08:03:14;;;;;;;27.90;13.13;;;5.70;99.90;;;;;;5041929;28;20455;-72
2022/03/25 08:05:40;;;;;;;24.67;11.27;;;5.80;99.90;;;;;;5023906;28;20064;-72
2022/03/25 08:08:05;;;;;;;22.50;10.18;;;5.90;99.90;;;;;;5037547;28;20453;-72
2022/03/25 08:10:32;;;;;;;28.67;12.55;;;6.10;99.90;;;;;;5061441;28;20029;-72
2022/03/25 08:12:59;;;;;;;25.10;12.02;;;6.10;99.90;;;;;;5017816;28;20124;-73
2022/03/25 08:15:28;;;;;;;22.48;10.50;;;6.20;99.90;;;;;;5036112;28;20835;-73
2022/03/25 08:18:00;;;;;;;26.08;10.88;;;6.20;99.90;;;;;;5043998;28;20125;-73
2022/03/25 08:20:39;;;;;;;21.42;10.18;;;6.30;99.90;;;;;;5042290;28;20049;-73
2022/03/25 08:23:11;;;;;;;19.77;9.90;;;6.40;99.90;;;;;;5026432;28;20077;-72
2022/03/25 08:28:21;;;;;;;26.02;10.57;;;6.60;99.90;;;;;;5041613;28;20037;-72
2022/03/25 08:30:47;;;;;;;19.15;9.02;;;6.70;99.90;;;;;;5034387;28;20044;-72
2022/03/25 08:33:13;;;;;;;28.60;9.32;;;6.70;99.90;;;;;;5027833;28;20069;-74
2022/03/25 08:35:40;;;;;;;20.23;9.85;;;6.90;99.90;;;;;;5041848;28;20071;-72
2022/03/25 08:38:07;;;;;;;23.10;10.32;;;6.90;99.90;;;;;;5041044;28;20124;-72
2022/03/25 08:40:34;;;;;;;19.10;9.50;;;7.00;99.90;;;;;;5047469;28;20554;-72
2022/03/25 08:43:07;;;;;;;19.65;8.27;;;7.10;99.90;;;;;;5037672;28;20444;-72
2022/03/25 08:45:33;;;;;;;20.25;9.15;;;7.20;99.90;;;;;;5021867;28;20033;-72
2022/03/25 08:47:59;;;;;;;22.52;9.82;;;7.30;99.90;;;;;;5034138;28;20384;-72
2022/03/25 08:50:25;;;;;;;18.95;8.70;;;7.40;99.90;;;;;;5044621;28;20044;-72
2022/03/25 08:52:52;;;;;;;22.38;8.55;;;7.40;99.90;;;;;;5042126;28;20517;-73
2022/03/25 08:55:19;;;;;;;16.65;7.20;;;7.50;99.90;;;;;;5044088;28;20045;-72
2022/03/25 08:57:46;;;;;;;19.77;9.20;;;7.70;99.90;;;;;;5046746;28;20044;-72
2022/03/25 09:00:17;;;;;;;13.57;7.20;;;7.80;99.90;;;;;;5051592;28;20051;-72
2022/03/25 09:02:44;;;;;;;23.05;9.52;;;7.80;99.90;;;;;;5042406;28;20084;-72
2022/03/25 09:05:11;;;;;;;17.30;8.90;;;7.90;99.90;;;;;;5040350;28;20759;-74
2022/03/25 09:07:37;;;;;;;15.68;6.80;;;8.00;99.90;;;;;;5057403;28;20533;-72
2022/03/25 09:10:08;;;;;;;23.38;9.13;;;8.10;99.90;;;;;;5040497;28;20037;-72
2022/03/25 09:12:34;;;;;;;17.58;7.35;;;8.20;99.90;;;;;;5032136;28;20093;-72
2022/03/25 09:15:01;;;;;;;21.10;8.30;;;8.20;99.90;;;;;;5031533;28;20529;-72
2022/03/25 09:17:27;;;;;;;17.13;7.40;;;8.40;99.90;;;;;;5049034;28;20138;-72
2022/03/25 09:19:54;;;;;;;16.30;6.75;;;8.40;99.90;;;;;;5065003;28;20494;-72
2022/03/25 09:22:20;;;;;;;18.73;6.90;;;8.60;99.90;;;;;;5031937;28;20037;-72
2022/03/25 09:24:45;;;;;;;18.67;7.38;;;8.60;99.90;;;;;;5032235;28;20037;-72
2022/03/25 09:27:11;;;;;;;17.98;6.32;;;8.70;99.90;;;;;;5031171;28;20182;-72
2022/03/25 09:29:37;;;;;;;18.08;7.70;;;8.90;99.90;;;;;;5048208;28;20045;-72
2022/03/25 09:32:03;;;;;;;15.25;6.53;;;8.90;99.90;;;;;;5032666;28;20048;-72
2022/03/25 09:37:13;;;;;;;16.48;6.65;;;9.10;98.30;;;;;;5047809;28;20041;-72
2022/03/25 09:39:39;;;;;;;14.82;5.90;;;9.10;98.40;;;;;;5045140;28;20036;-72
2022/03/25 09:42:05;;;;;;;13.05;5.22;;;9.20;97.70;;;;;;5048997;28;20041;-72
2022/03/25 09:44:32;;;;;;;13.55;5.22;;;9.20;97.50;;;;;;5031644;28;20045;-72
2022/03/25 09:46:57;;;;;;;12.55;5.03;;;9.20;97.80;;;;;;5030408;28;20120;-72
2022/03/25 09:49:23;;;;;;;14.40;6.00;;;9.10;97.70;;;;;;5065197;28;20122;-72
2022/03/25 09:51:49;;;;;;;17.38;6.85;;;9.20;97.50;;;;;;5048237;28;20036;-72
2022/03/25 09:54:16;;;;;;;17.60;7.70;;;9.30;97.20;;;;;;5048727;28;20131;-72
2022/03/25 09:56:42;;;;;;;18.50;7.13;;;9.30;96.70;;;;;;5048216;28;20071;-72
2022/03/25 09:59:08;;;;;;;16.25;6.47;;;9.40;97.00;;;;;;5044401;28;20432;-72
2022/03/25 10:01:35;;;;;;;10.57;5.18;;;9.40;96.70;;;;;;5046874;28;20041;-72
2022/03/25 10:04:00;;;;;;;19.90;6.22;;;9.50;96.20;;;;;;5048327;28;20115;-72
2022/03/25 10:06:26;;;;;;;13.73;5.38;;;9.60;95.20;;;;;;5048361;28;20182;-72
2022/03/25 10:09:01;;;;;;;14.63;5.00;;;9.60;94.90;;;;;;5048230;28;20041;-72
2022/03/25 10:11:31;;;;;;;17.00;5.90;;;9.70;94.30;;;;;;5047875;28;20047;-72
2022/03/25 10:14:23;;;;;;;14.93;5.10;;;9.80;94.10;;;;;;5046979;28;20044;-72
2022/03/25 10:16:53;;;;;;;12.75;6.03;;;9.80;90.10;;;;;;5030274;28;20106;-72
2022/03/25 10:19:21;;;;;;;18.00;5.93;;;9.90;92.90;;;;;;5064542;28;20135;-72
2022/03/25 10:21:58;;;;;;;14.13;6.07;;;10.10;92.80;;;;;;5030764;28;20441;-72
2022/03/25 10:24:44;;;;;;;13.77;5.57;;;10.10;91.90;;;;;;5031100;28;20094;-72
2022/03/25 10:27:10;;;;;;;10.43;4.63;;;10.20;89.30;;;;;;5047677;28;20206;-72
2022/03/25 10:29:37;;;;;;;12.73;4.68;;;10.20;92.20;;;;;;5033689;28;20132;-72
2022/03/25 10:32:08;;;;;;;9.77;3.92;;;10.30;91.50;;;;;;5037232;28;20144;-72
2022/03/25 10:34:38;;;;;;;11.05;4.43;;;10.40;88.60;;;;;;5043844;28;20041;-72
2022/03/25 10:37:06;;;;;;;11.80;4.30;;;10.40;90.40;;;;;;5058128;28;20040;-72
2022/03/25 10:39:33;;;;;;;14.35;4.53;;;10.50;90.80;;;;;;5042142;28;20036;-73
2022/03/25 10:42:04;;;;;;;11.48;4.55;;;10.50;90.50;;;;;;5026283;28;20178;-72
2022/03/25 10:44:38;;;;;;;13.77;5.70;;;10.60;89.40;;;;;;5037869;28;20478;-75
2022/03/25 10:47:24;;;;;;;9.80;3.65;;;10.70;89.00;;;;;;5032152;28;20123;-74
2022/03/25 10:49:51;;;;;;;11.60;4.25;;;10.70;85.90;;;;;;5031897;28;20048;-74
2022/03/25 10:52:31;;;;;;;10.93;4.93;;;10.60;90.00;;;;;;5039631;28;20047;-74
2022/03/25 10:55:19;;;;;;;9.82;4.30;;;10.60;82.60;;;;;;5041031;28;20670;-73
2022/03/25 10:57:54;;;;;;;9.98;4.30;;;10.70;84.90;;;;;;5059704;28;20592;-76
2022/03/25 11:00:22;;;;;;;11.75;5.68;;;10.70;82.50;;;;;;5012021;28;20048;-75
2022/03/25 11:02:47;;;;;;;10.23;4.70;;;10.80;87.00;;;;;;5031382;28;20550;-73
2022/03/25 11:05:14;;;;;;;13.50;4.53;;;10.90;87.20;;;;;;5039753;28;20116;-73
2022/03/25 11:07:42;;;;;;;11.80;5.78;;;10.90;87.20;;;;;;5030338;28;20028;-73
2022/03/25 11:10:13;;;;;;;9.98;4.43;;;11.00;86.70;;;;;;5050653;28;20041;-74
2022/03/25 11:12:50;;;;;;;12.25;5.35;;;11.10;86.60;;;;;;5034624;28;20042;-74
2022/03/25 11:15:19;;;;;;;13.85;5.38;;;11.10;84.70;;;;;;5034016;28;20048;-74
2022/03/25 11:17:46;;;;;;;12.45;5.07;;;11.30;84.50;;;;;;5030133;28;20065;-74
2022/03/25 11:20:14;;;;;;;13.80;5.30;;;11.20;85.30;;;;;;5035770;28;20051;-73
2022/03/25 11:22:55;;;;;;;11.10;4.75;;;11.20;85.80;;;;;;5025585;28;20028;-73
2022/03/25 11:25:22;;;;;;;13.27;5.88;;;11.30;83.90;;;;;;5038858;28;20541;-73
2022/03/25 11:27:53;;;;;;;13.93;5.43;;;11.30;85.40;;;;;;5038001;28;21965;-73
2022/03/25 11:30:20;;;;;;;12.27;5.03;;;11.30;84.70;;;;;;5038958;28;20398;-73
2022/03/25 11:33:02;;;;;;;12.07;5.53;;;11.40;84.40;;;;;;5022805;28;20055;-73
2022/03/25 11:35:30;;;;;;;9.40;4.55;;;11.50;82.00;;;;;;5042828;28;20052;-73
2022/03/25 11:38:11;;;;;;;12.35;5.32;;;11.60;81.70;;;;;;5024492;28;20098;-73
2022/03/25 11:40:39;;;;;;;11.55;5.78;;;11.70;79.30;;;;;;5033014;28;20064;-73
2022/03/25 11:43:25;;;;;;;10.73;4.35;;;11.70;82.40;;;;;;5024510;28;20048;-73
2022/03/25 11:46:00;;;;;;;12.88;4.45;;;11.80;73.00;;;;;;5039139;28;20040;-73
2022/03/25 11:48:25;;;;;;;10.73;4.63;;;11.80;78.00;;;;;;5040949;28;20072;-73
2022/03/25 11:50:55;;;;;;;10.77;5.18;;;11.80;80.60;;;;;;5031476;28;20060;-73
2022/03/25 11:53:23;;;;;;;13.52;5.28;;;11.90;79.50;;;;;;5042030;28;20040;-73
2022/03/25 11:56:01;;;;;;;11.18;4.63;;;11.90;80.70;;;;;;5021294;28;20045;-73
2022/03/25 11:58:36;;;;;;;12.02;5.97;;;12.00;79.40;;;;;;5027747;28;20143;-73
2022/03/25 12:01:13;;;;;;;10.60;4.90;;;12.00;77.60;;;;;;5041210;28;20120;-73
2022/03/25 12:03:49;;;;;;;12.80;5.07;;;12.00;77.00;;;;;;5022013;28;20125;-73
2022/03/25 12:06:17;;;;;;;15.45;6.22;;;12.00;76.10;;;;;;5039161;28;20040;-73
2022/03/25 12:09:00;;;;;;;11.35;4.80;;;12.10;76.30;;;;;;5044631;28;20041;-73
2022/03/25 12:11:47;;;;;;;13.80;4.97;;;12.20;71.80;;;;;;5038839;28;20048;-73
2022/03/25 12:14:13;;;;;;;11.63;5.13;;;12.30;70.30;;;;;;5037507;28;20518;-73
2022/03/25 12:16:48;;;;;;;12.60;4.97;;;12.40;73.90;;;;;;5047752;28;20037;-73
2022/03/25 12:19:26;;;;;;;11.27;5.07;;;12.50;71.80;;;;;;5059106;28;20083;-73
2022/03/25 12:22:03;;;;;;;9.63;4.40;;;12.50;70.90;;;;;;5037717;28;20033;-73
2022/03/25 12:24:31;;;;;;;11.55;5.22;;;12.50;72.60;;;;;;5054812;28;20155;-72
2022/03/25 12:27:02;;;;;;;12.38;4.78;;;12.60;74.10;;;;;;5022730;28;20033;-73
2022/03/25 12:29:37;;;;;;;11.98;4.57;;;12.50;72.90;;;;;;5063294;28;20064;-73
2022/03/25 12:32:08;;;;;;;10.30;4.53;;;12.60;69.40;;;;;;5040697;28;20052;-73
2022/03/25 12:34:58;;;;;;;9.77;4.38;;;12.70;70.00;;;;;;5062992;28;20041;-73
2022/03/25 12:37:42;;;;;;;9.60;4.57;;;12.80;66.10;;;;;;5058113;28;20036;-73
2022/03/25 12:40:20;;;;;;;8.77;3.90;;;12.80;67.90;;;;;;5043662;28;20124;-73
2022/03/25 12:42:54;;;;;;;11.07;4.30;;;12.80;68.40;;;;;;5045666;28;20108;-73
2022/03/25 12:45:34;;;;;;;8.65;3.65;;;12.80;68.20;;;;;;5058801;28;20402;-73
2022/03/25 12:48:18;;;;;;;11.00;3.95;;;12.90;67.40;;;;;;5024785;28;20048;-72
2022/03/25 12:50:46;;;;;;;8.35;3.45;;;12.90;67.10;;;;;;5025175;28;20448;-73
2022/03/25 12:53:12;;;;;;;9.48;3.38;;;13.00;69.50;;;;;;5046507;28;20339;-73